NJE925M EDDW-LIRP
Flight info
| Callsign | NJE925M |
|---|---|
| Flight time | N/A |
| Altitude | 40000 |
| Route | WIMCI Y804 PIROT N850 XAROL DCT BOMBI DCT GIGET DCT ABUKA DCT KRH DCT NATOR DCT TRA DCT RIPUS DCT GERSA DCT SOSON DCT ODINA DCT SRN DCT OSBUL DCT EKPAL DCT MIVKI |
| Aircraft | CL60/M-SADE3FGHIJ3J4J7P2RWXY/HB1D1 |
Departure
| Time | 2026-05-06 14:04 |
|---|---|
| Airport | Bremen Airport (EDDW) |
Arrival
| Time | N/A |
|---|---|
| Airport | Pisa International Airport (LIRP) |
| Time | Latitude | Longitude | Altitude | Speed | Heading |
|---|---|---|---|---|---|
| 2026-05-06 13:24 | 53.05279 | 8.77880 | 11 ft | 0 kts | 193° |
| 2026-05-06 14:00 | 53.05275 | 8.77879 | 11 ft | 3 kts | 191° |
| 2026-05-06 14:01 | 53.05255 | 8.77878 | 11 ft | 3 kts | 163° |
| 2026-05-06 14:01 | 53.05226 | 8.77913 | 11 ft | 7 kts | 135° |
| 2026-05-06 14:01 | 53.05183 | 8.77962 | 11 ft | 5 kts | 155° |
| 2026-05-06 14:01 | 53.05139 | 8.77937 | 11 ft | 9 kts | 230° |
| 2026-05-06 14:02 | 53.05086 | 8.77837 | 11 ft | 13 kts | 229° |
| 2026-05-06 14:02 | 53.05013 | 8.77705 | 11 ft | 17 kts | 228° |
| 2026-05-06 14:02 | 53.04942 | 8.77580 | 11 ft | 13 kts | 224° |
| 2026-05-06 14:02 | 53.04871 | 8.77499 | 12 ft | 12 kts | 204° |
| 2026-05-06 14:03 | 53.04792 | 8.77460 | 12 ft | 9 kts | 190° |
| 2026-05-06 14:03 | 53.04758 | 8.77452 | 12 ft | 0 kts | 185° |
| 2026-05-06 14:03 | 53.04737 | 8.77451 | 12 ft | 6 kts | 178° |
| 2026-05-06 14:03 | 53.04682 | 8.77459 | 12 ft | 8 kts | 167° |
| 2026-05-06 14:04 | 53.04661 | 8.77520 | 12 ft | 0 kts | 88° |
| 2026-05-06 14:04 | 53.04664 | 8.77666 | 11 ft | 53 kts | 88° |
| 2026-05-06 14:04 | 53.04693 | 8.78927 | 58 ft | 150 kts | 86° |
| 2026-05-06 14:04 | 53.04734 | 8.80806 | 859 ft | 176 kts | 85° |
| 2026-05-06 14:05 | 53.04768 | 8.82931 | 1702 ft | 191 kts | 83° |
| 2026-05-06 14:05 | 53.04831 | 8.85067 | 2526 ft | 187 kts | 82° |
| 2026-05-06 14:05 | 53.04704 | 8.87287 | 2953 ft | 199 kts | 107° |
| 2026-05-06 14:05 | 53.03902 | 8.89177 | 3269 ft | 206 kts | 129° |
| 2026-05-06 14:06 | 53.02725 | 8.90596 | 3599 ft | 211 kts | 144° |
| 2026-05-06 14:06 | 53.01258 | 8.91374 | 4039 ft | 240 kts | 169° |
| 2026-05-06 14:06 | 52.99540 | 8.91539 | 5199 ft | 260 kts | 173° |
| 2026-05-06 14:06 | 52.97715 | 8.91691 | 6508 ft | 271 kts | 174° |
| 2026-05-06 14:07 | 52.95826 | 8.91852 | 7974 ft | 278 kts | 175° |
| 2026-05-06 14:07 | 52.93898 | 8.92016 | 9348 ft | 288 kts | 175° |
| 2026-05-06 14:07 | 52.91890 | 8.92188 | 10696 ft | 297 kts | 175° |
| 2026-05-06 14:07 | 52.89847 | 8.92358 | 12077 ft | 301 kts | 175° |
| 2026-05-06 14:08 | 52.87776 | 8.92534 | 13473 ft | 301 kts | 175° |
| 2026-05-06 14:08 | 52.85724 | 8.92711 | 14801 ft | 301 kts | 176° |
| 2026-05-06 14:08 | 52.83616 | 8.92893 | 15908 ft | 307 kts | 176° |
| 2026-05-06 14:08 | 52.81487 | 8.93075 | 16931 ft | 311 kts | 176° |
| 2026-05-06 14:09 | 52.79315 | 8.93263 | 17821 ft | 317 kts | 177° |
| 2026-05-06 14:09 | 52.77105 | 8.93453 | 18656 ft | 324 kts | 178° |
| 2026-05-06 14:09 | 52.74786 | 8.93650 | 19267 ft | 338 kts | 178° |
| 2026-05-06 14:09 | 52.72350 | 8.93857 | 19509 ft | 362 kts | 178° |
| 2026-05-06 14:10 | 52.69776 | 8.94094 | 19971 ft | 377 kts | 175° |
| 2026-05-06 14:10 | 52.67209 | 8.95009 | 20658 ft | 384 kts | 165° |
| 2026-05-06 14:10 | 52.64635 | 8.96314 | 21317 ft | 391 kts | 165° |
| 2026-05-06 14:10 | 52.62007 | 8.97630 | 21981 ft | 397 kts | 164° |
| 2026-05-06 14:11 | 52.59376 | 8.98942 | 22786 ft | 399 kts | 164° |
| 2026-05-06 14:11 | 52.56731 | 9.00259 | 23546 ft | 404 kts | 164° |
| 2026-05-06 14:11 | 52.54024 | 9.01605 | 24286 ft | 409 kts | 164° |
| 2026-05-06 14:11 | 52.51303 | 9.02958 | 25032 ft | 413 kts | 164° |
| 2026-05-06 14:12 | 52.48532 | 9.04332 | 25689 ft | 418 kts | 164° |
| 2026-05-06 14:12 | 52.45731 | 9.05717 | 26368 ft | 422 kts | 163° |
| 2026-05-06 14:12 | 52.42895 | 9.07120 | 26962 ft | 427 kts | 163° |
| 2026-05-06 14:12 | 52.40041 | 9.08522 | 27580 ft | 430 kts | 163° |
| 2026-05-06 14:13 | 52.37165 | 9.09819 | 28165 ft | 433 kts | 165° |
| 2026-05-06 14:13 | 52.34241 | 9.11098 | 29023 ft | 430 kts | 165° |
| 2026-05-06 14:13 | 52.31390 | 9.12345 | 29908 ft | 425 kts | 165° |
| 2026-05-06 14:13 | 52.28549 | 9.13586 | 30633 ft | 424 kts | 164° |
| 2026-05-06 14:14 | 52.25701 | 9.14828 | 31265 ft | 423 kts | 164° |
| 2026-05-06 14:14 | 52.22874 | 9.16060 | 31740 ft | 424 kts | 165° |
| 2026-05-06 14:14 | 52.19987 | 9.17316 | 32071 ft | 428 kts | 165° |
| 2026-05-06 14:14 | 52.17130 | 9.18557 | 32446 ft | 430 kts | 165° |
| 2026-05-06 14:15 | 52.14204 | 9.19825 | 32746 ft | 435 kts | 166° |
| 2026-05-06 14:15 | 52.11268 | 9.21096 | 32785 ft | 440 kts | 166° |
| 2026-05-06 14:15 | 52.05259 | 9.22828 | 32806 ft | 438 kts | 178° |
| 2026-05-06 14:16 | 51.99256 | 9.22098 | 32796 ft | 433 kts | 190° |
| 2026-05-06 14:16 | 51.93293 | 9.20524 | 32760 ft | 433 kts | 189° |
| 2026-05-06 14:17 | 51.87336 | 9.18995 | 32778 ft | 434 kts | 188° |
| 2026-05-06 14:17 | 51.81266 | 9.17670 | 33018 ft | 440 kts | 188° |
| 2026-05-06 14:18 | 51.78288 | 9.17025 | 33817 ft | 425 kts | 189° |
| 2026-05-06 14:18 | 51.75459 | 9.16413 | 34731 ft | 406 kts | 189° |
| 2026-05-06 14:18 | 51.72710 | 9.15817 | 35502 ft | 393 kts | 189° |
| 2026-05-06 14:18 | 51.70045 | 9.15239 | 36016 ft | 387 kts | 189° |
| 2026-05-06 14:19 | 51.67357 | 9.14655 | 36371 ft | 387 kts | 189° |
| 2026-05-06 14:19 | 51.64713 | 9.14082 | 36645 ft | 387 kts | 190° |
| 2026-05-06 14:19 | 51.62011 | 9.13497 | 36907 ft | 389 kts | 189° |
| 2026-05-06 14:19 | 51.59336 | 9.12919 | 37171 ft | 390 kts | 190° |
| 2026-05-06 14:20 | 51.56643 | 9.12338 | 37434 ft | 390 kts | 190° |
| 2026-05-06 14:20 | 51.53959 | 9.11760 | 37692 ft | 391 kts | 190° |
| 2026-05-06 14:20 | 51.51245 | 9.11175 | 37945 ft | 391 kts | 190° |
| 2026-05-06 14:20 | 51.48579 | 9.10417 | 38196 ft | 390 kts | 194° |
| 2026-05-06 14:21 | 51.45945 | 9.09507 | 38433 ft | 390 kts | 194° |
| 2026-05-06 14:21 | 51.43288 | 9.08593 | 38651 ft | 390 kts | 194° |
| 2026-05-06 14:21 | 51.40624 | 9.07679 | 38773 ft | 393 kts | 194° |
| 2026-05-06 14:21 | 51.37953 | 9.06764 | 38772 ft | 395 kts | 194° |
| 2026-05-06 14:22 | 51.32585 | 9.04934 | 38777 ft | 394 kts | 194° |
| 2026-05-06 14:22 | 51.27150 | 9.03634 | 38765 ft | 393 kts | 189° |
| 2026-05-06 14:23 | 51.21721 | 9.02556 | 38780 ft | 397 kts | 189° |
| 2026-05-06 14:23 | 51.16155 | 9.01449 | 38779 ft | 410 kts | 189° |
| 2026-05-06 14:24 | 51.10398 | 9.00305 | 38786 ft | 421 kts | 189° |
| 2026-05-06 14:24 | 51.04542 | 8.99145 | 38770 ft | 431 kts | 189° |
| 2026-05-06 14:25 | 50.98548 | 8.97960 | 38772 ft | 437 kts | 189° |
| 2026-05-06 14:25 | 50.92490 | 8.96766 | 38775 ft | 439 kts | 189° |
| 2026-05-06 14:26 | 50.86442 | 8.95577 | 38775 ft | 439 kts | 189° |
| 2026-05-06 14:26 | 50.80337 | 8.94379 | 38776 ft | 438 kts | 189° |
| 2026-05-06 14:27 | 50.74299 | 8.93198 | 38768 ft | 436 kts | 189° |
| 2026-05-06 14:27 | 50.68286 | 8.92024 | 38772 ft | 436 kts | 189° |
| 2026-05-06 14:28 | 50.62263 | 8.90851 | 38773 ft | 436 kts | 189° |
| 2026-05-06 14:28 | 50.56255 | 8.89684 | 38777 ft | 437 kts | 189° |
| 2026-05-06 14:29 | 50.50208 | 8.88512 | 38772 ft | 437 kts | 189° |
| 2026-05-06 14:29 | 50.44181 | 8.87347 | 38769 ft | 437 kts | 189° |
| 2026-05-06 14:30 | 50.38147 | 8.86184 | 38778 ft | 436 kts | 189° |
| 2026-05-06 14:30 | 50.32127 | 8.85016 | 38763 ft | 436 kts | 189° |
| 2026-05-06 14:31 | 50.26087 | 8.83845 | 38774 ft | 436 kts | 189° |
| 2026-05-06 14:31 | 50.20095 | 8.82690 | 38770 ft | 435 kts | 189° |
| 2026-05-06 14:32 | 50.14090 | 8.81538 | 38773 ft | 435 kts | 189° |
| 2026-05-06 14:32 | 50.08064 | 8.80386 | 38781 ft | 436 kts | 189° |
| 2026-05-06 14:33 | 50.02058 | 8.79186 | 38780 ft | 436 kts | 189° |
| 2026-05-06 14:33 | 49.96035 | 8.77929 | 38764 ft | 437 kts | 189° |
| 2026-05-06 14:34 | 49.90003 | 8.76676 | 38765 ft | 436 kts | 189° |
| 2026-05-06 14:34 | 49.83998 | 8.75432 | 38761 ft | 435 kts | 189° |
| 2026-05-06 14:35 | 49.77990 | 8.74192 | 38766 ft | 435 kts | 189° |
| 2026-05-06 14:35 | 49.71979 | 8.72954 | 38773 ft | 435 kts | 189° |
| 2026-05-06 14:36 | 49.65973 | 8.71732 | 38787 ft | 435 kts | 189° |
| 2026-05-06 14:36 | 49.59965 | 8.70521 | 38795 ft | 435 kts | 189° |
| 2026-05-06 14:37 | 49.53979 | 8.69317 | 38803 ft | 436 kts | 189° |
| 2026-05-06 14:37 | 49.47953 | 8.68108 | 38797 ft | 436 kts | 189° |
| 2026-05-06 14:38 | 49.41964 | 8.66900 | 38801 ft | 435 kts | 189° |
| 2026-05-06 14:38 | 49.35937 | 8.65684 | 38799 ft | 435 kts | 189° |
| 2026-05-06 14:39 | 49.29944 | 8.64489 | 38786 ft | 435 kts | 189° |
| 2026-05-06 14:39 | 49.23931 | 8.63291 | 38785 ft | 435 kts | 189° |
| 2026-05-06 14:40 | 49.17941 | 8.62098 | 38781 ft | 435 kts | 189° |
| 2026-05-06 14:40 | 49.11954 | 8.60906 | 38783 ft | 434 kts | 189° |
| 2026-05-06 14:41 | 49.05945 | 8.59712 | 38782 ft | 435 kts | 189° |
| 2026-05-06 14:41 | 48.99966 | 8.58522 | 38780 ft | 435 kts | 189° |
| 2026-05-06 14:42 | 48.94046 | 8.56744 | 38785 ft | 434 kts | 193° |
| 2026-05-06 14:42 | 48.88164 | 8.54829 | 38797 ft | 434 kts | 194° |
| 2026-05-06 14:43 | 48.82219 | 8.52902 | 38798 ft | 434 kts | 193° |
| 2026-05-06 14:43 | 48.76326 | 8.50998 | 38805 ft | 434 kts | 194° |
| 2026-05-06 14:44 | 48.70354 | 8.49074 | 38810 ft | 435 kts | 194° |
| 2026-05-06 14:45 | 48.61481 | 8.46228 | 38820 ft | 435 kts | 194° |
| 2026-05-06 14:45 | 48.55595 | 8.44346 | 38810 ft | 436 kts | 194° |
| 2026-05-06 14:46 | 48.49628 | 8.42443 | 38978 ft | 439 kts | 194° |
| 2026-05-06 14:46 | 48.46621 | 8.41487 | 39154 ft | 437 kts | 194° |
| 2026-05-06 14:46 | 48.43685 | 8.40554 | 39459 ft | 433 kts | 194° |
| 2026-05-06 14:46 | 48.40739 | 8.39620 | 39765 ft | 429 kts | 194° |
| 2026-05-06 14:47 | 48.37812 | 8.38693 | 39824 ft | 432 kts | 194° |